Time;durP1;ratioP1;P1;durP2;ratioP2;P2;SDS_P1;SDS_P2;PMS_P1;PMS_P2;Temp;Humidity;BMP_temperature;BMP_pressure;BME280_temperature;BME280_humidity;BME280_pressure;Samples;Min_cycle;Max_cycle;Signal;HPM_P1;HPM_P2
2021/12/15 00:01:26;;;;;;;20.75;10.85;;;;;;;;;;5113072;28;20064;-71
2021/12/15 00:03:52;;;;;;;22.42;10.80;;;;;;;;;;5112974;28;20039;-71
2021/12/15 00:06:19;;;;;;;20.08;11.40;;;;;;;;;;5113123;28;20042;-70
2021/12/15 00:08:51;;;;;;;21.35;10.90;;;;;;;;;;5112459;28;20383;-70
2021/12/15 00:11:17;;;;;;;20.73;10.65;;;;;;;;;;5113316;28;20180;-70
2021/12/15 00:13:45;;;;;;;23.52;10.95;;;;;;;;;;5112635;28;20034;-70
2021/12/15 00:16:13;;;;;;;20.02;10.27;;;;;;;;;;5113298;28;20483;-71
2021/12/15 00:18:44;;;;;;;22.20;11.20;;;;;;;;;;5112481;28;20032;-69
2021/12/15 00:21:13;;;;;;;25.35;11.45;;;;;;;;;;5112933;28;20425;-71
2021/12/15 00:23:43;;;;;;;23.63;10.75;;;;;;;;;;5115223;28;20039;-69
2021/12/15 00:26:09;;;;;;;23.00;10.68;;;;;;;;;;5116828;28;20054;-69
2021/12/15 00:28:35;;;;;;;19.75;9.95;;;;;;;;;;5116098;28;20035;-70
2021/12/15 00:31:01;;;;;;;18.83;10.25;;;;;;;;;;5108590;28;20118;-71
2021/12/15 00:33:27;;;;;;;16.58;8.40;;;;;;;;;;5116306;28;20115;-69
2021/12/15 00:35:55;;;;;;;16.58;9.00;;;;;;;;;;5116395;28;20085;-71
2021/12/15 00:38:22;;;;;;;18.70;9.40;;;;;;;;;;5116036;28;20047;-69
2021/12/15 00:40:48;;;;;;;18.48;10.18;;;;;;;;;;5116647;28;20035;-71
2021/12/15 00:43:14;;;;;;;16.90;9.68;;;;;;;;;;5116248;28;20036;-71
2021/12/15 00:45:40;;;;;;;18.75;10.38;;;;;;;;;;5115970;28;20301;-70
2021/12/15 00:48:06;;;;;;;21.00;9.90;;;;;;;;;;5115709;28;20126;-69
2021/12/15 00:50:33;;;;;;;20.55;10.40;;;;;;;;;;5116000;28;20066;-71
2021/12/15 00:53:00;;;;;;;20.77;10.20;;;;;;;;;;5116070;28;20036;-70
2021/12/15 00:55:27;;;;;;;19.17;9.18;;;;;;;;;;5107854;27;20088;-70
2021/12/15 00:57:54;;;;;;;21.92;10.23;;;;;;;;;;5115861;28;20031;-71
2021/12/15 01:00:25;;;;;;;26.25;10.38;;;;;;;;;;5115952;28;20050;-70
2021/12/15 01:02:51;;;;;;;22.90;9.68;;;;;;;;;;5115973;28;20042;-71
2021/12/15 01:05:20;;;;;;;21.27;9.38;;;;;;;;;;5116009;28;20040;-71
2021/12/15 01:07:47;;;;;;;21.48;10.15;;;;;;;;;;5115466;28;20031;-70
2021/12/15 01:10:20;;;;;;;21.40;9.60;;;;;;;;;;5115997;28;20055;-69
2021/12/15 01:21:00;;;;;;;18.70;8.70;;;;;;;;;;5115663;28;20119;-68
2021/12/15 01:23:28;;;;;;;20.13;8.75;;;;;;;;;;5115350;28;20046;-70
2021/12/15 01:25:59;;;;;;;18.48;8.05;;;;;;;;;;5114568;28;20024;-71
2021/12/15 01:28:25;;;;;;;18.25;7.78;;;;;;;;;;5115104;28;20041;-69
2021/12/15 01:30:54;;;;;;;15.18;7.60;;;;;;;;;;5107011;28;20112;-68
2021/12/15 01:33:20;;;;;;;16.02;7.68;;;;;;;;;;5114935;28;20042;-69
2021/12/15 01:35:49;;;;;;;14.82;6.75;;;;;;;;;;5114435;28;20028;-69
2021/12/15 01:38:16;;;;;;;14.60;7.40;;;;;;;;;;5115014;28;20027;-70
2021/12/15 01:40:44;;;;;;;12.43;6.30;;;;;;;;;;5114908;28;20467;-69
2021/12/15 01:43:26;;;;;;;14.70;7.30;;;;;;;;;;5114991;28;20039;-71
2021/12/15 01:48:41;;;;;;;11.63;5.78;;;;;;;;;;5114714;28;20123;-69
2021/12/15 01:51:11;;;;;;;13.82;6.55;;;;;;;;;;5115154;28;20031;-69
2021/12/15 01:53:38;;;;;;;12.25;6.65;;;;;;;;;;5112842;28;20039;-69
2021/12/15 01:56:06;;;;;;;13.13;6.40;;;;;;;;;;5109682;28;20031;-68
2021/12/15 01:58:32;;;;;;;14.63;6.15;;;;;;;;;;5114250;28;20106;-71
2021/12/15 02:01:03;;;;;;;13.40;6.57;;;;;;;;;;5114992;28;20031;-67
2021/12/15 02:03:29;;;;;;;12.50;5.78;;;;;;;;;;5114423;28;20041;-71
2021/12/15 02:05:55;;;;;;;11.75;5.97;;;;;;;;;;5114684;28;20032;-69
2021/12/15 02:08:21;;;;;;;11.13;6.07;;;;;;;;;;5113103;28;20039;-70
2021/12/15 02:10:48;;;;;;;10.23;5.85;;;;;;;;;;5114879;28;20023;-70
2021/12/15 02:13:17;;;;;;;10.00;5.10;;;;;;;;;;5114217;27;20050;-68
2021/12/15 02:15:55;;;;;;;11.13;5.38;;;;;;;;;;5114681;28;20387;-71
2021/12/15 02:18:26;;;;;;;11.38;5.93;;;;;;;;;;5113782;28;20028;-69
2021/12/15 02:21:02;;;;;;;11.30;5.75;;;;;;;;;;5114325;28;20059;-70
2021/12/15 02:23:35;;;;;;;10.15;5.28;;;;;;;;;;5114286;28;20506;-69
2021/12/15 02:26:07;;;;;;;10.30;5.38;;;;;;;;;;5114549;28;20229;-69
2021/12/15 02:28:34;;;;;;;12.38;5.28;;;;;;;;;;5113591;28;20164;-69
2021/12/15 02:31:11;;;;;;;10.07;5.07;;;;;;;;;;5106818;28;20047;-72
2021/12/15 02:33:49;;;;;;;8.25;5.05;;;;;;;;;;5114063;28;20032;-71
2021/12/15 02:39:07;;;;;;;9.70;5.30;;;;;;;;;;5113901;28;20058;-69
2021/12/15 02:41:34;;;;;;;10.38;5.25;;;;;;;;;;5114268;28;20081;-69
2021/12/15 02:44:04;;;;;;;8.07;4.25;;;;;;;;;;5113849;27;20058;-69
2021/12/15 02:46:32;;;;;;;8.80;4.63;;;;;;;;;;5113673;28;20088;-67
2021/12/15 02:48:58;;;;;;;8.95;4.57;;;;;;;;;;5113609;28;20054;-71
2021/12/15 02:51:26;;;;;;;9.55;5.00;;;;;;;;;;5113947;28;20475;-70
2021/12/15 02:53:52;;;;;;;7.57;4.10;;;;;;;;;;5110036;28;20034;-71
2021/12/15 02:56:19;;;;;;;8.20;4.63;;;;;;;;;;5110270;28;20028;-71
2021/12/15 02:58:54;;;;;;;8.40;4.65;;;;;;;;;;5113304;28;20031;-71
2021/12/15 03:01:32;;;;;;;7.20;4.18;;;;;;;;;;5113931;28;20520;-69
2021/12/15 03:04:25;;;;;;;10.05;4.70;;;;;;;;;;5113986;28;20023;-69
2021/12/15 03:06:59;;;;;;;8.38;4.60;;;;;;;;;;5113703;28;20054;-72
2021/12/15 03:17:21;;;;;;;6.78;3.92;;;;;;;;;;5113257;28;20031;-71
2021/12/15 03:19:47;;;;;;;8.88;4.00;;;;;;;;;;5113533;28;20031;-70
2021/12/15 03:22:13;;;;;;;10.02;4.00;;;;;;;;;;5113254;28;20051;-70
2021/12/15 03:24:38;;;;;;;6.32;3.67;;;;;;;;;;5113256;28;20164;-71
2021/12/15 03:27:11;;;;;;;7.45;3.75;;;;;;;;;;5113487;28;20064;-71
2021/12/15 03:37:43;;;;;;;5.70;3.30;;;;;;;;;;5113031;28;20031;-71
2021/12/15 03:40:09;;;;;;;8.35;3.95;;;;;;;;;;5113377;28;20031;-71
2021/12/15 03:42:44;;;;;;;5.80;3.30;;;;;;;;;;5112722;28;20157;-70
2021/12/15 03:45:15;;;;;;;8.15;3.20;;;;;;;;;;5113552;28;20028;-70
2021/12/15 03:47:44;;;;;;;5.80;3.20;;;;;;;;;;5113017;28;20032;-69
2021/12/15 03:50:13;;;;;;;6.87;3.57;;;;;;;;;;5113206;28;20046;-71
2021/12/15 03:52:40;;;;;;;5.40;3.08;;;;;;;;;;5112920;28;20035;-71
2021/12/15 03:55:08;;;;;;;6.78;3.20;;;;;;;;;;5105021;28;20518;-71
2021/12/15 03:57:34;;;;;;;5.05;3.03;;;;;;;;;;5113705;28;20031;-69
2021/12/15 04:00:00;;;;;;;7.40;3.38;;;;;;;;;;5117100;28;20115;-71
2021/12/15 04:02:25;;;;;;;6.32;3.17;;;;;;;;;;5116786;28;20039;-70
2021/12/15 04:04:52;;;;;;;5.38;2.88;;;;;;;;;;5117206;28;20106;-70
2021/12/15 04:07:20;;;;;;;5.95;3.20;;;;;;;;;;5116906;28;20412;-70
2021/12/15 04:09:48;;;;;;;6.57;3.10;;;;;;;;;;5116755;28;20081;-69
2021/12/15 04:12:14;;;;;;;7.25;3.47;;;;;;;;;;5117007;28;20031;-70
2021/12/15 04:14:55;;;;;;;4.75;2.60;;;;;;;;;;5115895;28;20036;-70
2021/12/15 04:17:30;;;;;;;5.78;3.20;;;;;;;;;;5116447;28;20421;-70
2021/12/15 04:20:02;;;;;;;5.97;2.92;;;;;;;;;;5116907;28;20035;-71
2021/12/15 04:22:28;;;;;;;6.38;2.88;;;;;;;;;;5116371;27;20056;-70
2021/12/15 04:24:56;;;;;;;4.78;2.78;;;;;;;;;;5116588;28;20448;-71
2021/12/15 04:27:22;;;;;;;5.75;2.83;;;;;;;;;;5116325;28;20096;-71
2021/12/15 04:29:52;;;;;;;5.38;3.00;;;;;;;;;;5116453;28;20031;-70
2021/12/15 04:32:43;;;;;;;7.53;3.42;;;;;;;;;;5116564;28;20051;-69
2021/12/15 04:35:10;;;;;;;;;;;;;;;;;;5117316;28;20035;-70
2021/12/15 04:37:36;;;;;;;5.10;2.75;;;;;;;;;;5116347;28;20313;-71
2021/12/15 04:40:06;;;;;;;5.53;3.00;;;;;;;;;;5115442;27;20520;-71
2021/12/15 04:42:32;;;;;;;8.98;3.30;;;;;;;;;;5115939;28;20035;-70
2021/12/15 04:44:58;;;;;;;7.43;3.47;;;;;;;;;;5116450;28;20100;-69
2021/12/15 04:47:25;;;;;;;5.88;3.20;;;;;;;;;;5116079;28;20032;-71
2021/12/15 04:49:54;;;;;;;6.85;2.90;;;;;;;;;;5116117;28;20032;-71
2021/12/15 04:52:23;;;;;;;7.85;3.25;;;;;;;;;;5115804;28;20035;-70
2021/12/15 04:54:50;;;;;;;5.60;2.97;;;;;;;;;;5109145;28;20031;-71
2021/12/15 04:57:17;;;;;;;6.07;3.17;;;;;;;;;;5115716;28;20081;-70
2021/12/15 04:59:44;;;;;;;5.70;3.13;;;;;;;;;;5115992;28;20043;-70
2021/12/15 05:02:13;;;;;;;8.25;3.70;;;;;;;;;;5115682;28;20036;-71
2021/12/15 05:04:39;;;;;;;6.97;3.05;;;;;;;;;;5115867;28;20046;-70
2021/12/15 05:07:05;;;;;;;7.47;3.38;;;;;;;;;;5115709;28;20027;-69
2021/12/15 05:09:31;;;;;;;7.22;3.78;;;;;;;;;;5115506;28;20604;-70
2021/12/15 05:11:56;;;;;;;6.40;3.42;;;;;;;;;;5115594;28;20070;-71
2021/12/15 05:14:23;;;;;;;7.55;3.92;;;;;;;;;;5115797;28;20027;-69
2021/12/15 05:16:51;;;;;;;6.07;3.17;;;;;;;;;;5115494;28;20031;-70
2021/12/15 05:19:18;;;;;;;9.85;3.70;;;;;;;;;;5115597;28;20027;-71
2021/12/15 05:21:44;;;;;;;7.20;3.30;;;;;;;;;;5115284;28;20063;-71
2021/12/15 05:24:53;;;;;;;7.15;3.45;;;;;;;;;;5115723;28;20036;-71
2021/12/15 05:27:18;;;;;;;7.00;3.42;;;;;;;;;;5114853;28;20047;-71
2021/12/15 05:29:47;;;;;;;5.90;3.10;;;;;;;;;;5112541;27;20027;-71
2021/12/15 05:32:17;;;;;;;6.95;3.08;;;;;;;;;;5110791;28;20492;-69
2021/12/15 05:34:43;;;;;;;6.55;3.63;;;;;;;;;;5115633;28;20024;-70
2021/12/15 05:37:09;;;;;;;10.27;3.50;;;;;;;;;;5115187;28;20061;-70
2021/12/15 05:39:35;;;;;;;6.53;3.58;;;;;;;;;;5114882;28;20376;-70
2021/12/15 05:42:02;;;;;;;7.57;3.72;;;;;;;;;;5114876;28;20024;-69
2021/12/15 05:44:27;;;;;;;7.50;4.00;;;;;;;;;;5115285;28;20448;-70
2021/12/15 05:46:56;;;;;;;11.43;3.83;;;;;;;;;;5114717;28;20023;-71
2021/12/15 05:49:22;;;;;;;8.45;3.70;;;;;;;;;;5114857;28;20023;-71
2021/12/15 05:51:48;;;;;;;7.40;3.80;;;;;;;;;;5114883;28;20546;-71
2021/12/15 05:54:14;;;;;;;7.30;3.45;;;;;;;;;;5108103;28;20520;-70
2021/12/15 05:56:41;;;;;;;9.63;3.83;;;;;;;;;;5113807;28;20027;-71
2021/12/15 05:59:07;;;;;;;7.38;3.60;;;;;;;;;;5114996;28;20391;-70
2021/12/15 06:01:33;;;;;;;7.63;3.70;;;;;;;;;;5114103;28;20023;-69
2021/12/15 06:04:00;;;;;;;8.57;4.18;;;;;;;;;;5114950;28;20024;-69
2021/12/15 06:06:28;;;;;;;9.52;4.55;;;;;;;;;;5114289;28;20024;-70
2021/12/15 06:08:55;;;;;;;7.28;3.83;;;;;;;;;;5114614;28;20028;-69
2021/12/15 06:11:21;;;;;;;6.63;3.53;;;;;;;;;;5114478;28;20467;-70
2021/12/15 06:13:47;;;;;;;12.52;4.28;;;;;;;;;;5114952;28;20032;-70
2021/12/15 06:16:14;;;;;;;6.90;3.72;;;;;;;;;;5114130;28;20039;-70
2021/12/15 06:18:40;;;;;;;8.27;3.83;;;;;;;;;;5114479;28;20080;-69
2021/12/15 06:21:06;;;;;;;7.60;3.90;;;;;;;;;;5113402;28;20039;-70
2021/12/15 06:23:31;;;;;;;11.43;4.20;;;;;;;;;;5114302;28;20031;-71
2021/12/15 06:26:00;;;;;;;11.00;4.75;;;;;;;;;;5113975;28;20107;-71
2021/12/15 06:28:28;;;;;;;13.32;5.20;;;;;;;;;;5114506;28;20074;-69
2021/12/15 06:30:55;;;;;;;9.40;4.90;;;;;;;;;;5105591;28;20027;-70
2021/12/15 06:33:22;;;;;;;9.93;4.82;;;;;;;;;;5114467;28;20023;-69
2021/12/15 06:35:53;;;;;;;10.27;5.00;;;;;;;;;;5113849;28;20042;-70
2021/12/15 06:38:25;;;;;;;10.02;4.38;;;;;;;;;;5114493;28;20054;-70
2021/12/15 06:40:51;;;;;;;12.27;4.57;;;;;;;;;;5113622;28;20110;-71
2021/12/15 06:43:16;;;;;;;8.38;4.40;;;;;;;;;;5114130;28;20114;-69
2021/12/15 06:46:03;;;;;;;10.80;4.13;;;;;;;;;;5113827;28;20023;-71
2021/12/15 06:59:25;;;;;;;12.85;5.00;;;;;;;;;;5113674;28;20042;-70
2021/12/15 07:01:51;;;;;;;11.13;5.30;;;;;;;;;;5113404;28;20027;-70
2021/12/15 07:04:19;;;;;;;11.57;5.25;;;;;;;;;;5113718;28;20033;-70
2021/12/15 07:06:46;;;;;;;10.63;4.90;;;;;;;;;;5113454;28;20031;-70
2021/12/15 07:09:12;;;;;;;12.70;5.20;;;;;;;;;;5113622;28;20030;-71
2021/12/15 07:11:37;;;;;;;13.00;4.93;;;;;;;;;;5112323;28;20390;-71
2021/12/15 07:14:03;;;;;;;7.72;4.35;;;;;;;;;;5113538;28;20459;-70
2021/12/15 07:16:31;;;;;;;10.10;4.90;;;;;;;;;;5113493;28;20011;-70
2021/12/15 07:21:39;;;;;;;12.57;4.95;;;;;;;;;;5112846;28;20120;-69
2021/12/15 07:24:06;;;;;;;11.63;5.32;;;;;;;;;;5112561;28;20467;-70
2021/12/15 07:26:33;;;;;;;12.32;6.05;;;;;;;;;;5113357;28;20127;-71
2021/12/15 07:28:59;;;;;;;10.18;5.13;;;;;;;;;;5113557;28;20099;-69
2021/12/15 07:31:25;;;;;;;9.63;5.50;;;;;;;;;;5112740;28;20107;-68
2021/12/15 07:33:51;;;;;;;11.88;6.38;;;;;;;;;;5117309;28;20027;-69
2021/12/15 07:36:17;;;;;;;11.48;5.60;;;;;;;;;;5118005;28;20464;-69
2021/12/15 07:38:43;;;;;;;18.45;6.57;;;;;;;;;;5117786;28;20030;-69
2021/12/15 07:41:41;;;;;;;13.10;5.90;;;;;;;;;;5117382;28;20088;-68
2021/12/15 07:44:04;;;;;;;18.58;6.22;;;;;;;;;;5117717;28;20039;-69
2021/12/15 07:46:30;;;;;;;16.58;7.03;;;;;;;;;;5117644;28;20084;-71
2021/12/15 07:48:56;;;;;;;15.77;7.38;;;;;;;;;;5117892;28;20433;-68
2021/12/15 07:51:22;;;;;;;14.00;7.35;;;;;;;;;;5117276;27;20027;-67
2021/12/15 07:53:48;;;;;;;13.88;7.93;;;;;;;;;;5115726;28;20107;-69
2021/12/15 07:56:15;;;;;;;17.83;8.20;;;;;;;;;;5116506;28;20055;-68
2021/12/15 07:58:41;;;;;;;15.45;9.05;;;;;;;;;;5117334;28;20410;-69
2021/12/15 08:01:07;;;;;;;14.70;8.93;;;;;;;;;;5117388;28;20455;-71
2021/12/15 08:03:38;;;;;;;17.70;8.85;;;;;;;;;;5117270;28;20023;-68
2021/12/15 08:06:04;;;;;;;15.80;8.43;;;;;;;;;;5117512;27;20376;-69
2021/12/15 08:08:30;;;;;;;17.63;9.52;;;;;;;;;;5117290;28;20035;-71
2021/12/15 08:10:57;;;;;;;17.58;10.13;;;;;;;;;;5117101;28;20035;-67
2021/12/15 08:13:33;;;;;;;14.32;8.93;;;;;;;;;;5117171;28;20023;-68
2021/12/15 08:16:00;;;;;;;18.52;9.23;;;;;;;;;;5117176;28;20031;-68
2021/12/15 08:18:26;;;;;;;20.08;9.45;;;;;;;;;;5117204;28;20062;-67
2021/12/15 08:20:52;;;;;;;17.85;8.50;;;;;;;;;;5116547;28;20086;-67
2021/12/15 08:23:18;;;;;;;18.10;8.25;;;;;;;;;;5117053;28;20055;-67
2021/12/15 08:25:44;;;;;;;15.00;8.57;;;;;;;;;;5116857;28;20525;-68
2021/12/15 08:28:11;;;;;;;13.90;8.60;;;;;;;;;;5116859;28;20059;-68
2021/12/15 08:30:44;;;;;;;14.02;7.68;;;;;;;;;;5113524;28;20027;-67
2021/12/15 08:33:18;;;;;;;14.68;7.95;;;;;;;;;;5116808;28;20027;-68
2021/12/15 08:35:58;;;;;;;21.10;8.68;;;;;;;;;;5116624;28;20381;-67
2021/12/15 08:38:33;;;;;;;15.27;7.88;;;;;;;;;;5116807;28;20035;-68
2021/12/15 08:41:11;;;;;;;13.82;7.80;;;;;;;;;;5116531;28;20410;-70
2021/12/15 08:43:37;;;;;;;12.68;7.43;;;;;;;;;;5116003;28;20023;-68
2021/12/15 08:46:09;;;;;;;15.40;7.47;;;;;;;;;;5116475;28;20036;-68
2021/12/15 08:48:39;;;;;;;17.40;7.72;;;;;;;;;;5116807;28;20059;-68
2021/12/15 08:51:07;;;;;;;14.65;7.43;;;;;;;;;;5116294;28;20468;-67
2021/12/15 08:53:36;;;;;;;11.90;6.60;;;;;;;;;;5115030;28;20024;-68
2021/12/15 08:56:06;;;;;;;12.25;6.88;;;;;;;;;;5115931;28;20102;-68
2021/12/15 08:58:32;;;;;;;11.30;6.00;;;;;;;;;;5116375;28;20086;-70
2021/12/15 09:01:01;;;;;;;12.82;6.15;;;;;;;;;;5116089;28;20480;-67
2021/12/15 09:03:30;;;;;;;17.58;6.63;;;;;;;;;;5116263;28;20111;-67
2021/12/15 09:05:59;;;;;;;14.90;6.97;;;;;;;;;;5116137;28;20023;-67
2021/12/15 09:08:25;;;;;;;12.65;5.30;;;;;;;;;;5116231;28;20027;-68
2021/12/15 09:10:53;;;;;;;14.30;5.63;;;;;;;;;;5115694;27;20298;-67
2021/12/15 09:13:19;;;;;;;13.63;5.20;;;;;;;;;;5116250;28;20039;-67
2021/12/15 09:15:45;;;;;;;12.70;5.20;;;;;;;;;;5116071;28;20019;-68
2021/12/15 09:18:12;;;;;;;10.32;4.50;;;;;;;;;;5114898;28;20375;-69
2021/12/15 09:20:40;;;;;;;8.20;4.20;;;;;;;;;;5115654;28;20034;-67
2021/12/15 09:23:08;;;;;;;10.55;4.53;;;;;;;;;;5115855;28;20035;-67
2021/12/15 09:25:35;;;;;;;9.48;4.43;;;;;;;;;;5116035;28;20084;-68
2021/12/15 09:28:00;;;;;;;11.02;4.85;;;;;;;;;;5115567;28;20160;-67
2021/12/15 09:30:28;;;;;;;13.43;5.20;;;;;;;;;;5113432;28;20069;-68
2021/12/15 09:32:55;;;;;;;10.05;4.43;;;;;;;;;;5115422;28;20034;-68
2021/12/15 09:35:24;;;;;;;9.63;5.10;;;;;;;;;;5115717;28;20387;-68
2021/12/15 09:37:51;;;;;;;10.48;4.80;;;;;;;;;;5115390;28;20054;-68
2021/12/15 09:40:18;;;;;;;7.75;4.78;;;;;;;;;;5115578;28;20540;-68
2021/12/15 09:42:45;;;;;;;11.02;5.05;;;;;;;;;;5115247;28;20055;-68
2021/12/15 09:48:07;;;;;;;13.40;5.35;;;;;;;;;;5115686;28;20470;-68
2021/12/15 09:56:27;;;;;;;23.92;5.55;;;;;;;;;;5106969;28;20035;-67
2021/12/15 10:12:31;;;;;;;5.70;3.15;;;;;;;;;;5115143;28;20537;-69
2021/12/15 10:20:27;;;;;;;15.05;3.83;;;;;;;;;;5114099;28;20038;-69
2021/12/15 10:22:59;;;;;;;11.45;3.55;;;;;;;;;;5111672;28;20357;-68
2021/12/15 10:25:32;;;;;;;11.05;3.67;;;;;;;;;;5112861;28;20028;-68
2021/12/15 10:28:02;;;;;;;7.43;3.22;;;;;;;;;;5105972;28;20092;-68
2021/12/15 10:30:32;;;;;;;13.02;3.83;;;;;;;;;;5106727;28;20443;-67
2021/12/15 10:33:29;;;;;;;8.00;3.38;;;;;;;;;;5112694;28;20085;-68
2021/12/15 10:36:14;;;;;;;8.15;3.30;;;;;;;;;;5103929;28;20035;-67
2021/12/15 10:38:53;;;;;;;10.63;3.60;;;;;;;;;;5112693;28;20024;-68
2021/12/15 10:41:35;;;;;;;7.38;3.47;;;;;;;;;;5112099;28;20027;-67
2021/12/15 10:44:08;;;;;;;8.38;3.40;;;;;;;;;;5112700;28;20032;-67
2021/12/15 10:46:46;;;;;;;10.05;3.50;;;;;;;;;;5112473;28;20499;-68
2021/12/15 10:49:24;;;;;;;6.53;3.40;;;;;;;;;;5113842;28;20027;-67
2021/12/15 10:52:05;;;;;;;7.53;3.80;;;;;;;;;;5114204;28;20059;-67
2021/12/15 10:54:32;;;;;;;;;;;;;;;;;;5114449;28;20032;-67
2021/12/15 10:57:03;;;;;;;11.07;4.18;;;;;;;;;;5114322;28;19923;-67
2021/12/15 10:59:35;;;;;;;10.75;4.45;;;;;;;;;;5114026;28;20460;-68
2021/12/15 11:02:09;;;;;;;10.70;4.28;;;;;;;;;;5114079;28;20035;-68
2021/12/15 11:04:42;;;;;;;8.98;4.22;;;;;;;;;;5113922;28;20059;-68
2021/12/15 11:07:15;;;;;;;10.35;4.40;;;;;;;;;;5113740;28;20089;-68
2021/12/15 11:09:55;;;;;;;11.02;4.53;;;;;;;;;;5108143;28;20159;-69
2021/12/15 11:12:32;;;;;;;8.57;4.25;;;;;;;;;;5119682;27;20035;-68
2021/12/15 11:15:23;;;;;;;8.05;4.50;;;;;;;;;;5108612;28;20444;-69
2021/12/15 11:17:51;;;;;;;9.00;4.35;;;;;;;;;;5102988;28;20027;-68
2021/12/15 11:20:29;;;;;;;8.55;4.18;;;;;;;;;;5113262;28;20032;-68
2021/12/15 11:23:12;;;;;;;11.68;5.00;;;;;;;;;;5108055;28;20062;-69
2021/12/15 11:25:46;;;;;;;11.77;4.35;;;;;;;;;;5109883;28;20024;-69
2021/12/15 11:28:17;;;;;;;7.50;3.60;;;;;;;;;;5109923;28;20027;-68
2021/12/15 11:31:00;;;;;;;9.93;3.67;;;;;;;;;;5111420;28;20054;-68
2021/12/15 11:33:30;;;;;;;9.15;3.72;;;;;;;;;;5113193;28;20024;-68
2021/12/15 11:36:01;;;;;;;6.18;3.83;;;;;;;;;;5113721;28;20039;-69
2021/12/15 11:38:37;;;;;;;7.45;3.85;;;;;;;;;;5113270;28;20031;-71
2021/12/15 11:41:17;;;;;;;7.35;3.55;;;;;;;;;;5112975;28;20042;-69
2021/12/15 11:43:53;;;;;;;8.05;3.70;;;;;;;;;;5108121;28;20028;-72
2021/12/15 11:46:24;;;;;;;8.45;3.60;;;;;;;;;;5110766;28;20031;-69
2021/12/15 11:48:53;;;;;;;6.55;3.75;;;;;;;;;;5110715;28;20031;-70
2021/12/15 11:51:41;;;;;;;10.68;4.28;;;;;;;;;;5110765;28;20526;-70
2021/12/15 11:54:23;;;;;;;9.07;3.83;;;;;;;;;;5113038;28;20081;-70
2021/12/15 11:57:15;;;;;;;9.10;4.18;;;;;;;;;;5113366;28;20047;-70
2021/12/15 11:59:44;;;;;;;8.25;3.97;;;;;;;;;;5101051;28;20054;-70
2021/12/15 12:02:24;;;;;;;9.27;4.22;;;;;;;;;;5113340;28;20089;-70
2021/12/15 12:04:59;;;;;;;7.55;4.22;;;;;;;;;;5113556;28;20031;-69
2021/12/15 12:07:37;;;;;;;9.57;4.10;;;;;;;;;;5113368;28;20107;-69
2021/12/15 12:10:31;;;;;;;6.70;4.20;;;;;;;;;;5113311;28;20031;-70
2021/12/15 12:13:12;;;;;;;9.95;4.13;;;;;;;;;;5113039;28;20027;-69
2021/12/15 12:15:48;;;;;;;9.18;4.85;;;;;;;;;;5113341;28;20372;-70
2021/12/15 12:18:18;;;;;;;6.95;4.03;;;;;;;;;;5110905;28;20110;-70
2021/12/15 12:20:50;;;;;;;9.60;4.60;;;;;;;;;;5115860;28;20480;-70
2021/12/15 12:23:19;;;;;;;12.07;4.93;;;;;;;;;;5115248;28;20553;-70
2021/12/15 12:25:51;;;;;;;9.63;4.78;;;;;;;;;;5114910;28;20019;-70
2021/12/15 12:28:22;;;;;;;9.27;4.53;;;;;;;;;;5114760;28;20111;-69
2021/12/15 12:31:13;;;;;;;10.85;4.30;;;;;;;;;;5112133;28;20072;-70
2021/12/15 12:33:39;;;;;;;8.18;4.38;;;;;;;;;;5114781;28;20380;-69
2021/12/15 12:36:21;;;;;;;10.05;4.53;;;;;;;;;;5105371;28;20015;-70
2021/12/15 12:38:55;;;;;;;8.30;4.50;;;;;;;;;;5105833;28;20032;-71
2021/12/15 12:41:28;;;;;;;10.95;4.90;;;;;;;;;;5108711;28;20034;-70
2021/12/15 12:43:57;;;;;;;11.75;5.20;;;;;;;;;;5111496;28;20023;-70
2021/12/15 12:46:34;;;;;;;11.07;4.88;;;;;;;;;;5116541;28;20055;-70
2021/12/15 12:49:28;;;;;;;10.98;4.90;;;;;;;;;;5116432;28;20056;-70
2021/12/15 13:00:24;;;;;;;8.70;4.72;;;;;;;;;;5116595;28;20034;-69
2021/12/15 13:03:01;;;;;;;12.38;5.05;;;;;;;;;;5114180;28;20027;-70
2021/12/15 13:05:44;;;;;;;10.85;5.10;;;;;;;;;;5114283;28;20122;-70
2021/12/15 13:08:36;;;;;;;8.52;4.93;;;;;;;;;;5114250;28;20039;-69
2021/12/15 13:11:07;;;;;;;9.07;4.85;;;;;;;;;;5112191;28;20062;-69
2021/12/15 13:13:56;;;;;;;10.90;5.50;;;;;;;;;;5114232;28;20031;-69
2021/12/15 13:16:50;;;;;;;10.40;5.22;;;;;;;;;;5114340;28;20020;-69
2021/12/15 13:19:40;;;;;;;11.00;4.93;;;;;;;;;;5115102;28;20030;-69
2021/12/15 13:30:50;;;;;;;17.23;6.05;;;;;;;;;;5111000;28;20088;-69
2021/12/15 13:33:27;;;;;;;9.68;5.88;;;;;;;;;;5115454;28;20039;-67
2021/12/15 13:36:03;;;;;;;15.50;6.38;;;;;;;;;;5116016;27;20103;-69
2021/12/15 13:38:34;;;;;;;12.57;6.15;;;;;;;;;;5115633;28;20581;-70
2021/12/15 13:41:30;;;;;;;12.65;6.68;;;;;;;;;;5115366;28;20030;-69
2021/12/15 13:44:02;;;;;;;15.23;6.53;;;;;;;;;;5115278;28;20024;-69
2021/12/15 13:46:27;;;;;;;12.52;6.55;;;;;;;;;;5109971;28;20027;-69
2021/12/15 13:49:06;;;;;;;10.48;6.20;;;;;;;;;;5109733;28;20027;-70
2021/12/15 13:51:51;;;;;;;10.50;6.38;;;;;;;;;;5102295;27;20058;-70
2021/12/15 13:54:23;;;;;;;10.80;6.20;;;;;;;;;;5114285;28;20023;-70
2021/12/15 13:56:53;;;;;;;12.45;6.50;;;;;;;;;;5111189;28;20427;-69
2021/12/15 13:59:37;;;;;;;9.75;5.72;;;;;;;;;;5114874;28;20028;-70
2021/12/15 14:02:11;;;;;;;10.40;5.75;;;;;;;;;;5114831;28;20106;-70
2021/12/15 14:05:02;;;;;;;12.23;6.25;;;;;;;;;;5109327;28;20054;-69
2021/12/15 14:07:28;;;;;;;14.15;6.15;;;;;;;;;;5113598;27;20036;-69
2021/12/15 14:09:59;;;;;;;9.98;5.68;;;;;;;;;;5114482;27;20032;-69
2021/12/15 14:12:57;;;;;;;11.15;6.60;;;;;;;;;;5114466;28;20475;-69
2021/12/15 14:15:25;;;;;;;9.52;5.78;;;;;;;;;;5099218;28;20047;-68
2021/12/15 14:18:05;;;;;;;10.32;6.25;;;;;;;;;;5114547;28;20023;-68
2021/12/15 14:20:33;;;;;;;12.97;5.77;;;;;;;;;;5110356;28;20465;-68
2021/12/15 14:23:03;;;;;;;11.60;7.22;;;;;;;;;;5114249;28;20357;-68
2021/12/15 14:25:34;;;;;;;11.38;7.07;;;;;;;;;;5114690;28;20040;-69
2021/12/15 14:28:12;;;;;;;11.35;7.18;;;;;;;;;;5114897;28;20092;-69
2021/12/15 14:30:39;;;;;;;13.93;6.68;;;;;;;;;;5111092;28;20032;-69
2021/12/15 14:33:28;;;;;;;13.00;6.95;;;;;;;;;;5114304;28;20038;-68
2021/12/15 14:35:58;;;;;;;13.77;6.53;;;;;;;;;;5113788;28;20028;-68
2021/12/15 14:38:53;;;;;;;21.00;7.40;;;;;;;;;;5114940;28;20049;-70
2021/12/15 14:41:28;;;;;;;12.35;6.15;;;;;;;;;;5113752;27;20468;-69
2021/12/15 14:44:05;;;;;;;17.27;6.57;;;;;;;;;;5114144;28;20080;-69
2021/12/15 14:46:35;;;;;;;12.80;6.93;;;;;;;;;;5114211;28;20080;-68
2021/12/15 14:49:14;;;;;;;12.90;6.78;;;;;;;;;;5114389;28;20035;-68
2021/12/15 14:51:46;;;;;;;13.15;7.07;;;;;;;;;;5114210;28;20076;-69
2021/12/15 14:54:13;;;;;;;13.02;6.28;;;;;;;;;;5112427;28;20031;-69
2021/12/15 14:56:57;;;;;;;9.90;6.20;;;;;;;;;;5111650;28;20513;-69
2021/12/15 14:59:44;;;;;;;10.90;6.40;;;;;;;;;;5114262;28;20027;-69
2021/12/15 15:02:15;;;;;;;14.38;7.85;;;;;;;;;;5113715;28;20150;-69
2021/12/15 15:04:44;;;;;;;13.18;6.72;;;;;;;;;;5113766;28;20027;-69
2021/12/15 15:07:13;;;;;;;17.73;9.98;;;;;;;;;;5113920;28;20031;-70
2021/12/15 15:09:43;;;;;;;13.95;8.15;;;;;;;;;;5113826;28;20404;-69
2021/12/15 15:12:21;;;;;;;17.40;8.98;;;;;;;;;;5114182;28;20023;-69
2021/12/15 15:14:51;;;;;;;15.00;8.93;;;;;;;;;;5113548;28;20416;-69
2021/12/15 15:17:27;;;;;;;16.58;9.38;;;;;;;;;;5114197;28;20027;-69
2021/12/15 15:19:57;;;;;;;14.35;8.90;;;;;;;;;;5113786;28;20042;-69
2021/12/15 15:22:27;;;;;;;16.05;9.10;;;;;;;;;;5105484;28;20077;-69
2021/12/15 15:24:54;;;;;;;17.77;10.07;;;;;;;;;;5113371;28;20035;-69
2021/12/15 15:27:21;;;;;;;18.73;10.00;;;;;;;;;;5113621;28;20035;-69
2021/12/15 15:29:53;;;;;;;16.85;9.40;;;;;;;;;;5112282;28;20055;-69
2021/12/15 15:32:21;;;;;;;16.35;8.52;;;;;;;;;;5113853;28;20475;-69
2021/12/15 15:34:50;;;;;;;14.60;8.00;;;;;;;;;;5113371;28;20080;-69
2021/12/15 15:37:36;;;;;;;13.75;7.75;;;;;;;;;;5113723;28;20034;-70
2021/12/15 15:40:10;;;;;;;14.43;7.50;;;;;;;;;;5113781;28;20040;-69
2021/12/15 15:42:36;;;;;;;10.93;7.32;;;;;;;;;;5113593;28;20084;-69
2021/12/15 15:45:04;;;;;;;12.43;7.10;;;;;;;;;;5113751;28;20043;-69
2021/12/15 15:47:29;;;;;;;11.50;7.20;;;;;;;;;;5113425;28;20042;-70
2021/12/15 15:50:06;;;;;;;11.80;7.38;;;;;;;;;;5113607;28;20032;-70
2021/12/15 15:53:03;;;;;;;11.00;7.20;;;;;;;;;;5113624;28;20039;-70
2021/12/15 15:55:30;;;;;;;9.90;6.70;;;;;;;;;;5064706;28;20051;-69
2021/12/15 15:58:00;;;;;;;12.68;6.90;;;;;;;;;;5116700;28;20092;-70
2021/12/15 16:00:29;;;;;;;10.43;7.07;;;;;;;;;;5117493;27;20035;-69
2021/12/15 16:02:56;;;;;;;12.57;8.20;;;;;;;;;;5117397;28;20035;-68
2021/12/15 16:05:23;;;;;;;13.00;8.13;;;;;;;;;;5117472;28;20039;-68
2021/12/15 16:07:51;;;;;;;14.48;8.68;;;;;;;;;;5117228;28;20039;-69
2021/12/15 16:10:24;;;;;;;16.65;9.07;;;;;;;;;;5117685;28;20429;-69
2021/12/15 16:12:49;;;;;;;15.15;9.20;;;;;;;;;;5117167;27;20027;-69
2021/12/15 16:15:16;;;;;;;15.23;9.18;;;;;;;;;;5115927;28;20110;-69
2021/12/15 16:17:56;;;;;;;17.35;9.55;;;;;;;;;;5117071;28;20080;-69
2021/12/15 16:20:24;;;;;;;14.57;9.70;;;;;;;;;;5117346;28;20035;-69
2021/12/15 16:22:52;;;;;;;17.40;9.93;;;;;;;;;;5095809;28;20040;-68
2021/12/15 16:25:33;;;;;;;14.00;9.32;;;;;;;;;;5096317;28;20024;-69
2021/12/15 16:28:09;;;;;;;14.73;9.05;;;;;;;;;;5096479;28;20077;-69